Oostburg, Wisconsin
Current Conditions -  °F | °C
As of 8:38 AM on Friday 28 Nov 2014 (Local Time) from KSBM Reporting Station
Light Snow Light Snow  
Wind Chill: 15°   Ceiling: 3800
Heat Index: 15°   Visibility: 1.2mi
Dew Point: 11°   Wind: 3mph
Humidity: 84%   Direction: 170°S
Pressure: 30.2"   Gusts: NA
Location:  43.62°N, 87.79°W
Report Text: KSBM 281438Z AUTO 17003KT 1 1/4SM -SN BR BKN038 OVC050 M09/M12 A3020 RMK AO2 P0001 T10941117
Loading
Personal Weather Stations






























Interactive Weather Map New forecast layout! Learn more

10-Day Weather Forecast

Advertisements
Track Severe Weather on mobile